sensor_id;sensor_type;location;lat;lon;timestamp;P1;durP1;ratioP1;P2;durP2;ratioP2
1062;SDS011;520;50.932;6.962;2024-01-15T00:00:39;19.70;;;10.30;;
1062;SDS011;520;50.932;6.962;2024-01-15T00:03:09;20.60;;;9.73;;
1062;SDS011;520;50.932;6.962;2024-01-15T00:05:36;19.13;;;10.87;;
1062;SDS011;520;50.932;6.962;2024-01-15T00:08:04;16.83;;;9.60;;
1062;SDS011;520;50.932;6.962;2024-01-15T00:10:33;19.90;;;10.93;;
1062;SDS011;520;50.932;6.962;2024-01-15T00:13:03;20.30;;;11.10;;
1062;SDS011;520;50.932;6.962;2024-01-15T00:15:33;16.33;;;10.30;;
1062;SDS011;520;50.932;6.962;2024-01-15T00:18:03;19.00;;;9.77;;
1062;SDS011;520;50.932;6.962;2024-01-15T00:20:30;17.63;;;11.30;;
1062;SDS011;520;50.932;6.962;2024-01-15T00:23:00;24.23;;;11.43;;
1062;SDS011;520;50.932;6.962;2024-01-15T00:25:28;21.33;;;11.67;;
1062;SDS011;520;50.932;6.962;2024-01-15T00:27:55;15.63;;;10.07;;
1062;SDS011;520;50.932;6.962;2024-01-15T00:30:22;19.13;;;10.70;;
1062;SDS011;520;50.932;6.962;2024-01-15T00:32:49;13.20;;;8.33;;
1062;SDS011;520;50.932;6.962;2024-01-15T00:35:18;18.07;;;10.30;;
1062;SDS011;520;50.932;6.962;2024-01-15T00:37:45;21.03;;;11.10;;
1062;SDS011;520;50.932;6.962;2024-01-15T00:40:13;22.43;;;12.37;;
1062;SDS011;520;50.932;6.962;2024-01-15T00:42:40;23.87;;;11.70;;
1062;SDS011;520;50.932;6.962;2024-01-15T00:45:07;22.20;;;11.20;;
1062;SDS011;520;50.932;6.962;2024-01-15T00:47:35;20.13;;;10.60;;
1062;SDS011;520;50.932;6.962;2024-01-15T00:50:02;18.63;;;10.63;;
1062;SDS011;520;50.932;6.962;2024-01-15T00:52:30;19.23;;;11.00;;
1062;SDS011;520;50.932;6.962;2024-01-15T00:54:57;17.10;;;10.70;;
1062;SDS011;520;50.932;6.962;2024-01-15T00:57:24;18.00;;;11.23;;
1062;SDS011;520;50.932;6.962;2024-01-15T00:59:51;20.07;;;9.33;;
1062;SDS011;520;50.932;6.962;2024-01-15T01:02:19;17.00;;;11.00;;
1062;SDS011;520;50.932;6.962;2024-01-15T01:04:46;17.70;;;10.10;;
1062;SDS011;520;50.932;6.962;2024-01-15T01:07:13;21.20;;;12.67;;
1062;SDS011;520;50.932;6.962;2024-01-15T01:09:40;17.60;;;10.93;;
1062;SDS011;520;50.932;6.962;2024-01-15T01:12:08;25.50;;;10.50;;
1062;SDS011;520;50.932;6.962;2024-01-15T01:14:35;20.80;;;11.60;;
1062;SDS011;520;50.932;6.962;2024-01-15T01:17:02;18.57;;;9.80;;
1062;SDS011;520;50.932;6.962;2024-01-15T01:19:30;18.00;;;10.57;;
1062;SDS011;520;50.932;6.962;2024-01-15T01:22:03;22.20;;;11.80;;
1062;SDS011;520;50.932;6.962;2024-01-15T01:24:30;22.43;;;11.50;;
1062;SDS011;520;50.932;6.962;2024-01-15T01:26:57;21.43;;;10.10;;
1062;SDS011;520;50.932;6.962;2024-01-15T01:29:24;16.50;;;10.77;;
1062;SDS011;520;50.932;6.962;2024-01-15T01:31:53;17.37;;;11.37;;
1062;SDS011;520;50.932;6.962;2024-01-15T01:34:20;21.07;;;10.63;;
1062;SDS011;520;50.932;6.962;2024-01-15T01:36:47;18.93;;;10.30;;
1062;SDS011;520;50.932;6.962;2024-01-15T01:39:18;20.13;;;11.23;;
1062;SDS011;520;50.932;6.962;2024-01-15T01:41:45;19.80;;;10.63;;
1062;SDS011;520;50.932;6.962;2024-01-15T01:44:12;18.00;;;10.90;;
1062;SDS011;520;50.932;6.962;2024-01-15T01:46:40;16.63;;;10.30;;
1062;SDS011;520;50.932;6.962;2024-01-15T01:49:07;18.37;;;10.60;;
1062;SDS011;520;50.932;6.962;2024-01-15T01:51:36;21.60;;;11.10;;
1062;SDS011;520;50.932;6.962;2024-01-15T01:54:05;18.10;;;9.87;;
1062;SDS011;520;50.932;6.962;2024-01-15T01:56:33;15.93;;;9.73;;
1062;SDS011;520;50.932;6.962;2024-01-15T01:59:01;18.33;;;11.07;;
1062;SDS011;520;50.932;6.962;2024-01-15T02:01:31;16.57;;;11.27;;
1062;SDS011;520;50.932;6.962;2024-01-15T02:04:03;20.47;;;10.70;;
1062;SDS011;520;50.932;6.962;2024-01-15T02:06:33;15.00;;;9.97;;
1062;SDS011;520;50.932;6.962;2024-01-15T02:09:00;25.50;;;11.20;;
1062;SDS011;520;50.932;6.962;2024-01-15T02:11:28;23.90;;;11.47;;
1062;SDS011;520;50.932;6.962;2024-01-15T02:13:55;20.87;;;12.03;;
1062;SDS011;520;50.932;6.962;2024-01-15T02:16:22;16.93;;;9.30;;
1062;SDS011;520;50.932;6.962;2024-01-15T02:18:50;22.50;;;11.90;;
1062;SDS011;520;50.932;6.962;2024-01-15T02:21:18;20.53;;;10.60;;
1062;SDS011;520;50.932;6.962;2024-01-15T02:23:45;21.17;;;11.57;;
1062;SDS011;520;50.932;6.962;2024-01-15T02:26:13;18.60;;;11.57;;
1062;SDS011;520;50.932;6.962;2024-01-15T02:28:42;24.13;;;12.80;;
1062;SDS011;520;50.932;6.962;2024-01-15T02:31:10;17.57;;;10.50;;
1062;SDS011;520;50.932;6.962;2024-01-15T02:33:37;20.10;;;10.37;;
1062;SDS011;520;50.932;6.962;2024-01-15T02:36:05;17.90;;;9.33;;
1062;SDS011;520;50.932;6.962;2024-01-15T02:38:32;25.70;;;11.50;;
1062;SDS011;520;50.932;6.962;2024-01-15T02:40:59;20.83;;;10.47;;
1062;SDS011;520;50.932;6.962;2024-01-15T02:43:27;17.53;;;10.40;;
1062;SDS011;520;50.932;6.962;2024-01-15T02:45:54;24.50;;;11.90;;
1062;SDS011;520;50.932;6.962;2024-01-15T02:48:21;19.70;;;11.30;;
1062;SDS011;520;50.932;6.962;2024-01-15T02:50:48;14.73;;;9.97;;
1062;SDS011;520;50.932;6.962;2024-01-15T02:53:16;20.10;;;11.27;;
1062;SDS011;520;50.932;6.962;2024-01-15T02:55:43;22.33;;;11.67;;
1062;SDS011;520;50.932;6.962;2024-01-15T02:58:10;21.77;;;11.27;;
1062;SDS011;520;50.932;6.962;2024-01-15T03:00:40;20.70;;;11.27;;
1062;SDS011;520;50.932;6.962;2024-01-15T03:03:09;20.10;;;10.60;;
1062;SDS011;520;50.932;6.962;2024-01-15T03:05:36;18.33;;;10.60;;
1062;SDS011;520;50.932;6.962;2024-01-15T03:08:03;20.23;;;9.67;;
1062;SDS011;520;50.932;6.962;2024-01-15T03:10:31;17.03;;;10.03;;
1062;SDS011;520;50.932;6.962;2024-01-15T03:12:58;16.70;;;10.27;;
1062;SDS011;520;50.932;6.962;2024-01-15T03:15:26;19.83;;;12.13;;
1062;SDS011;520;50.932;6.962;2024-01-15T03:17:53;17.30;;;10.00;;
1062;SDS011;520;50.932;6.962;2024-01-15T03:20:20;17.40;;;10.70;;
1062;SDS011;520;50.932;6.962;2024-01-15T03:22:47;19.60;;;10.17;;
1062;SDS011;520;50.932;6.962;2024-01-15T03:25:15;18.10;;;11.00;;
1062;SDS011;520;50.932;6.962;2024-01-15T03:27:42;17.30;;;10.60;;
1062;SDS011;520;50.932;6.962;2024-01-15T03:30:10;16.53;;;9.47;;
1062;SDS011;520;50.932;6.962;2024-01-15T03:32:38;14.83;;;9.43;;
1062;SDS011;520;50.932;6.962;2024-01-15T03:35:08;16.57;;;11.00;;
1062;SDS011;520;50.932;6.962;2024-01-15T03:37:35;15.03;;;9.30;;
1062;SDS011;520;50.932;6.962;2024-01-15T03:40:02;17.80;;;10.00;;
1062;SDS011;520;50.932;6.962;2024-01-15T03:42:30;16.73;;;10.77;;
1062;SDS011;520;50.932;6.962;2024-01-15T03:44:57;16.03;;;9.93;;
1062;SDS011;520;50.932;6.962;2024-01-15T03:47:27;14.97;;;10.00;;
1062;SDS011;520;50.932;6.962;2024-01-15T03:49:54;15.30;;;9.83;;
1062;SDS011;520;50.932;6.962;2024-01-15T03:52:22;18.43;;;10.60;;
1062;SDS011;520;50.932;6.962;2024-01-15T03:54:49;18.60;;;10.27;;
1062;SDS011;520;50.932;6.962;2024-01-15T03:57:19;19.77;;;10.40;;
1062;SDS011;520;50.932;6.962;2024-01-15T03:59:46;22.13;;;11.77;;
1062;SDS011;520;50.932;6.962;2024-01-15T04:02:13;19.77;;;11.60;;
1062;SDS011;520;50.932;6.962;2024-01-15T04:04:42;18.60;;;11.70;;
1062;SDS011;520;50.932;6.962;2024-01-15T04:07:09;17.37;;;11.47;;
1062;SDS011;520;50.932;6.962;2024-01-15T04:09:37;17.03;;;10.40;;
1062;SDS011;520;50.932;6.962;2024-01-15T04:12:07;16.73;;;11.37;;
1062;SDS011;520;50.932;6.962;2024-01-15T04:14:34;14.93;;;10.07;;
1062;SDS011;520;50.932;6.962;2024-01-15T04:17:01;17.53;;;10.47;;
1062;SDS011;520;50.932;6.962;2024-01-15T04:19:28;16.10;;;10.87;;
1062;SDS011;520;50.932;6.962;2024-01-15T04:21:56;17.97;;;10.23;;
1062;SDS011;520;50.932;6.962;2024-01-15T04:24:23;17.97;;;10.13;;
1062;SDS011;520;50.932;6.962;2024-01-15T04:26:52;24.47;;;12.37;;
1062;SDS011;520;50.932;6.962;2024-01-15T04:29:19;20.77;;;10.27;;
1062;SDS011;520;50.932;6.962;2024-01-15T04:31:46;20.23;;;11.23;;
1062;SDS011;520;50.932;6.962;2024-01-15T04:34:13;19.47;;;9.13;;
1062;SDS011;520;50.932;6.962;2024-01-15T04:36:41;17.70;;;11.40;;
1062;SDS011;520;50.932;6.962;2024-01-15T04:39:08;27.20;;;10.50;;
1062;SDS011;520;50.932;6.962;2024-01-15T04:41:37;15.67;;;9.83;;
1062;SDS011;520;50.932;6.962;2024-01-15T04:44:04;17.27;;;8.30;;
1062;SDS011;520;50.932;6.962;2024-01-15T04:46:32;16.93;;;9.10;;
1062;SDS011;520;50.932;6.962;2024-01-15T04:48:59;13.10;;;7.70;;
1062;SDS011;520;50.932;6.962;2024-01-15T04:51:33;13.93;;;9.23;;
1062;SDS011;520;50.932;6.962;2024-01-15T04:54:01;14.50;;;8.20;;
1062;SDS011;520;50.932;6.962;2024-01-15T04:56:29;16.57;;;9.27;;
1062;SDS011;520;50.932;6.962;2024-01-15T04:58:56;13.43;;;9.00;;
1062;SDS011;520;50.932;6.962;2024-01-15T05:01:23;11.23;;;8.13;;
1062;SDS011;520;50.932;6.962;2024-01-15T05:03:54;15.20;;;8.80;;
1062;SDS011;520;50.932;6.962;2024-01-15T05:06:25;15.87;;;8.20;;
1062;SDS011;520;50.932;6.962;2024-01-15T05:08:52;15.50;;;8.50;;
1062;SDS011;520;50.932;6.962;2024-01-15T05:11:20;17.47;;;8.40;;
1062;SDS011;520;50.932;6.962;2024-01-15T05:13:48;11.40;;;8.00;;
1062;SDS011;520;50.932;6.962;2024-01-15T05:16:15;15.20;;;9.67;;
1062;SDS011;520;50.932;6.962;2024-01-15T05:18:42;14.87;;;8.10;;
1062;SDS011;520;50.932;6.962;2024-01-15T05:21:17;13.30;;;6.97;;
1062;SDS011;520;50.932;6.962;2024-01-15T05:23:44;15.40;;;8.47;;
1062;SDS011;520;50.932;6.962;2024-01-15T05:26:11;12.20;;;7.40;;
1062;SDS011;520;50.932;6.962;2024-01-15T05:28:40;12.37;;;7.30;;
1062;SDS011;520;50.932;6.962;2024-01-15T05:31:09;12.80;;;7.93;;
1062;SDS011;520;50.932;6.962;2024-01-15T05:33:37;16.13;;;7.87;;
1062;SDS011;520;50.932;6.962;2024-01-15T05:36:07;14.73;;;9.10;;
1062;SDS011;520;50.932;6.962;2024-01-15T05:38:34;14.93;;;8.93;;
1062;SDS011;520;50.932;6.962;2024-01-15T05:41:02;12.23;;;7.90;;
1062;SDS011;520;50.932;6.962;2024-01-15T05:43:29;16.77;;;7.97;;
1062;SDS011;520;50.932;6.962;2024-01-15T05:45:56;10.60;;;7.37;;
1062;SDS011;520;50.932;6.962;2024-01-15T05:48:24;10.47;;;7.33;;
1062;SDS011;520;50.932;6.962;2024-01-15T05:50:51;11.57;;;7.67;;
1062;SDS011;520;50.932;6.962;2024-01-15T05:53:18;9.60;;;6.47;;
1062;SDS011;520;50.932;6.962;2024-01-15T05:55:46;11.60;;;8.07;;
1062;SDS011;520;50.932;6.962;2024-01-15T05:58:13;12.07;;;7.93;;
1062;SDS011;520;50.932;6.962;2024-01-15T06:00:40;11.50;;;6.60;;
1062;SDS011;520;50.932;6.962;2024-01-15T06:03:07;13.53;;;7.43;;
1062;SDS011;520;50.932;6.962;2024-01-15T06:05:35;12.53;;;7.67;;
1062;SDS011;520;50.932;6.962;2024-01-15T06:08:03;15.70;;;7.20;;
1062;SDS011;520;50.932;6.962;2024-01-15T06:10:30;10.83;;;6.87;;
1062;SDS011;520;50.932;6.962;2024-01-15T06:12:57;11.00;;;6.83;;
1062;SDS011;520;50.932;6.962;2024-01-15T06:15:24;14.60;;;7.90;;
1062;SDS011;520;50.932;6.962;2024-01-15T06:17:55;18.73;;;8.57;;
1062;SDS011;520;50.932;6.962;2024-01-15T06:20:22;11.57;;;7.57;;
1062;SDS011;520;50.932;6.962;2024-01-15T06:22:50;10.87;;;7.23;;
1062;SDS011;520;50.932;6.962;2024-01-15T06:25:19;9.70;;;7.67;;
1062;SDS011;520;50.932;6.962;2024-01-15T06:27:46;12.03;;;7.20;;
1062;SDS011;520;50.932;6.962;2024-01-15T06:30:13;12.00;;;7.60;;
1062;SDS011;520;50.932;6.962;2024-01-15T06:32:41;11.83;;;6.80;;
1062;SDS011;520;50.932;6.962;2024-01-15T06:35:08;10.03;;;7.37;;
1062;SDS011;520;50.932;6.962;2024-01-15T06:37:37;13.53;;;8.20;;
1062;SDS011;520;50.932;6.962;2024-01-15T06:40:05;14.50;;;7.50;;
1062;SDS011;520;50.932;6.962;2024-01-15T06:42:32;10.83;;;8.17;;
1062;SDS011;520;50.932;6.962;2024-01-15T06:44:59;11.27;;;7.90;;
1062;SDS011;520;50.932;6.962;2024-01-15T06:47:26;12.73;;;7.53;;
1062;SDS011;520;50.932;6.962;2024-01-15T06:49:54;10.87;;;7.20;;
1062;SDS011;520;50.932;6.962;2024-01-15T06:52:21;14.03;;;7.67;;
1062;SDS011;520;50.932;6.962;2024-01-15T06:54:48;12.03;;;8.07;;
1062;SDS011;520;50.932;6.962;2024-01-15T06:57:16;15.20;;;8.07;;
1062;SDS011;520;50.932;6.962;2024-01-15T06:59:43;12.80;;;8.00;;
1062;SDS011;520;50.932;6.962;2024-01-15T07:02:10;10.63;;;7.10;;
1062;SDS011;520;50.932;6.962;2024-01-15T07:04:38;12.67;;;8.70;;
1062;SDS011;520;50.932;6.962;2024-01-15T07:07:08;10.70;;;7.10;;
1062;SDS011;520;50.932;6.962;2024-01-15T07:09:35;10.77;;;8.00;;
1062;SDS011;520;50.932;6.962;2024-01-15T07:12:05;15.80;;;8.20;;
1062;SDS011;520;50.932;6.962;2024-01-15T07:14:32;14.80;;;8.83;;
1062;SDS011;520;50.932;6.962;2024-01-15T07:16:59;13.53;;;7.60;;
1062;SDS011;520;50.932;6.962;2024-01-15T07:19:26;11.67;;;7.20;;
1062;SDS011;520;50.932;6.962;2024-01-15T07:21:54;11.40;;;8.23;;
1062;SDS011;520;50.932;6.962;2024-01-15T07:24:22;9.40;;;7.50;;
1062;SDS011;520;50.932;6.962;2024-01-15T07:26:49;10.00;;;5.80;;
1062;SDS011;520;50.932;6.962;2024-01-15T07:29:19;12.50;;;7.20;;
1062;SDS011;520;50.932;6.962;2024-01-15T07:31:49;10.30;;;7.53;;
1062;SDS011;520;50.932;6.962;2024-01-15T07:34:17;11.07;;;7.20;;
1062;SDS011;520;50.932;6.962;2024-01-15T07:36:45;11.80;;;7.60;;
1062;SDS011;520;50.932;6.962;2024-01-15T07:39:12;11.23;;;7.97;;
1062;SDS011;520;50.932;6.962;2024-01-15T07:41:40;11.70;;;7.83;;
1062;SDS011;520;50.932;6.962;2024-01-15T07:44:07;9.93;;;6.80;;
1062;SDS011;520;50.932;6.962;2024-01-15T07:46:36;8.50;;;6.90;;
1062;SDS011;520;50.932;6.962;2024-01-15T07:49:06;9.90;;;7.67;;
1062;SDS011;520;50.932;6.962;2024-01-15T07:51:33;12.10;;;7.00;;
1062;SDS011;520;50.932;6.962;2024-01-15T07:54:01;11.00;;;7.03;;
1062;SDS011;520;50.932;6.962;2024-01-15T07:56:28;11.23;;;7.90;;
1062;SDS011;520;50.932;6.962;2024-01-15T07:58:56;15.80;;;7.70;;
1062;SDS011;520;50.932;6.962;2024-01-15T08:01:25;15.40;;;8.33;;
1062;SDS011;520;50.932;6.962;2024-01-15T08:03:53;11.77;;;8.07;;
1062;SDS011;520;50.932;6.962;2024-01-15T08:06:21;17.30;;;10.30;;
1062;SDS011;520;50.932;6.962;2024-01-15T08:08:49;16.53;;;8.10;;
1062;SDS011;520;50.932;6.962;2024-01-15T08:11:16;12.00;;;8.73;;
1062;SDS011;520;50.932;6.962;2024-01-15T08:13:46;18.73;;;12.33;;
1062;SDS011;520;50.932;6.962;2024-01-15T08:16:14;12.03;;;9.00;;
1062;SDS011;520;50.932;6.962;2024-01-15T08:18:41;16.60;;;9.33;;
1062;SDS011;520;50.932;6.962;2024-01-15T08:21:15;18.17;;;10.60;;
1062;SDS011;520;50.932;6.962;2024-01-15T08:23:42;14.80;;;9.50;;
1062;SDS011;520;50.932;6.962;2024-01-15T08:26:11;13.80;;;9.73;;
1062;SDS011;520;50.932;6.962;2024-01-15T08:28:39;13.67;;;9.07;;
1062;SDS011;520;50.932;6.962;2024-01-15T08:31:09;11.73;;;8.83;;
1062;SDS011;520;50.932;6.962;2024-01-15T08:33:39;13.03;;;9.33;;
1062;SDS011;520;50.932;6.962;2024-01-15T08:36:06;15.00;;;10.50;;
1062;SDS011;520;50.932;6.962;2024-01-15T08:38:34;18.37;;;8.87;;
1062;SDS011;520;50.932;6.962;2024-01-15T08:41:01;14.20;;;9.40;;
1062;SDS011;520;50.932;6.962;2024-01-15T08:43:31;15.50;;;9.27;;
1062;SDS011;520;50.932;6.962;2024-01-15T08:45:58;12.67;;;7.97;;
1062;SDS011;520;50.932;6.962;2024-01-15T08:48:29;12.47;;;9.60;;
1062;SDS011;520;50.932;6.962;2024-01-15T08:50:58;17.17;;;10.87;;
1062;SDS011;520;50.932;6.962;2024-01-15T08:53:38;13.50;;;7.70;;
1062;SDS011;520;50.932;6.962;2024-01-15T08:56:06;15.63;;;9.03;;
1062;SDS011;520;50.932;6.962;2024-01-15T08:58:35;11.83;;;9.37;;
1062;SDS011;520;50.932;6.962;2024-01-15T09:11:30;14.77;;;8.17;;
1062;SDS011;520;50.932;6.962;2024-01-15T09:14:12;13.30;;;8.33;;
1062;SDS011;520;50.932;6.962;2024-01-15T09:16:49;14.77;;;9.40;;
1062;SDS011;520;50.932;6.962;2024-01-15T09:19:19;10.50;;;7.20;;
1062;SDS011;520;50.932;6.962;2024-01-15T09:21:49;13.37;;;7.57;;
1062;SDS011;520;50.932;6.962;2024-01-15T09:24:16;11.07;;;6.97;;
1062;SDS011;520;50.932;6.962;2024-01-15T09:26:44;12.83;;;7.20;;
1062;SDS011;520;50.932;6.962;2024-01-15T09:29:13;7.80;;;6.80;;
1062;SDS011;520;50.932;6.962;2024-01-15T09:31:43;12.87;;;6.70;;
1062;SDS011;520;50.932;6.962;2024-01-15T09:34:10;9.47;;;7.00;;
1062;SDS011;520;50.932;6.962;2024-01-15T09:36:40;7.53;;;5.70;;
1062;SDS011;520;50.932;6.962;2024-01-15T09:39:09;8.50;;;5.67;;
1062;SDS011;520;50.932;6.962;2024-01-15T09:41:37;7.10;;;4.90;;
1062;SDS011;520;50.932;6.962;2024-01-15T09:44:04;7.23;;;4.83;;
1062;SDS011;520;50.932;6.962;2024-01-15T09:46:34;9.13;;;5.90;;
1062;SDS011;520;50.932;6.962;2024-01-15T09:49:02;9.97;;;6.00;;
1062;SDS011;520;50.932;6.962;2024-01-15T09:51:31;7.30;;;5.60;;
1062;SDS011;520;50.932;6.962;2024-01-15T09:54:00;6.20;;;5.20;;
1062;SDS011;520;50.932;6.962;2024-01-15T09:56:31;7.90;;;5.50;;
1062;SDS011;520;50.932;6.962;2024-01-15T10:02:01;5.37;;;3.97;;
1062;SDS011;520;50.932;6.962;2024-01-15T10:04:29;5.90;;;4.93;;
1062;SDS011;520;50.932;6.962;2024-01-15T10:07:00;4.83;;;3.83;;
1062;SDS011;520;50.932;6.962;2024-01-15T10:09:29;5.83;;;4.97;;
1062;SDS011;520;50.932;6.962;2024-01-15T10:12:06;6.83;;;4.70;;
1062;SDS011;520;50.932;6.962;2024-01-15T10:14:38;3.00;;;2.80;;
1062;SDS011;520;50.932;6.962;2024-01-15T10:17:11;6.17;;;3.30;;
1062;SDS011;520;50.932;6.962;2024-01-15T10:19:42;3.47;;;2.90;;
1062;SDS011;520;50.932;6.962;2024-01-15T10:22:13;4.30;;;3.00;;
1062;SDS011;520;50.932;6.962;2024-01-15T10:24:42;3.37;;;3.07;;
1062;SDS011;520;50.932;6.962;2024-01-15T10:27:11;4.23;;;3.23;;
1062;SDS011;520;50.932;6.962;2024-01-15T10:29:40;3.17;;;2.93;;
1062;SDS011;520;50.932;6.962;2024-01-15T10:32:08;3.10;;;2.57;;
1062;SDS011;520;50.932;6.962;2024-01-15T10:34:39;5.83;;;3.27;;
1062;SDS011;520;50.932;6.962;2024-01-15T10:37:08;3.87;;;3.30;;
1062;SDS011;520;50.932;6.962;2024-01-15T10:39:36;5.33;;;3.17;;
1062;SDS011;520;50.932;6.962;2024-01-15T10:42:04;4.40;;;4.00;;
1062;SDS011;520;50.932;6.962;2024-01-15T10:44:37;4.43;;;3.37;;
1062;SDS011;520;50.932;6.962;2024-01-15T10:47:06;3.50;;;3.20;;
1062;SDS011;520;50.932;6.962;2024-01-15T10:49:37;4.40;;;3.53;;
1062;SDS011;520;50.932;6.962;2024-01-15T10:52:04;4.70;;;3.47;;
1062;SDS011;520;50.932;6.962;2024-01-15T10:54:32;4.17;;;3.10;;
1062;SDS011;520;50.932;6.962;2024-01-15T10:56:59;3.20;;;2.83;;
1062;SDS011;520;50.932;6.962;2024-01-15T10:59:26;3.10;;;2.80;;
1062;SDS011;520;50.932;6.962;2024-01-15T11:02:16;3.17;;;2.93;;
1062;SDS011;520;50.932;6.962;2024-01-15T11:04:46;3.03;;;2.23;;
1062;SDS011;520;50.932;6.962;2024-01-15T11:07:39;3.70;;;2.47;;
1062;SDS011;520;50.932;6.962;2024-01-15T11:12:59;2.73;;;2.23;;
1062;SDS011;520;50.932;6.962;2024-01-15T11:15:29;3.30;;;2.57;;
1062;SDS011;520;50.932;6.962;2024-01-15T11:18:06;5.97;;;3.07;;
1062;SDS011;520;50.932;6.962;2024-01-15T11:21:02;2.20;;;2.03;;
1062;SDS011;520;50.932;6.962;2024-01-15T11:23:45;3.27;;;2.30;;
1062;SDS011;520;50.932;6.962;2024-01-15T11:29:06;2.27;;;1.90;;
1062;SDS011;520;50.932;6.962;2024-01-15T11:34:18;3.87;;;2.37;;
1062;SDS011;520;50.932;6.962;2024-01-15T11:41:57;2.53;;;2.33;;
1062;SDS011;520;50.932;6.962;2024-01-15T11:44:30;2.87;;;2.63;;
1062;SDS011;520;50.932;6.962;2024-01-15T11:47:04;4.53;;;2.70;;
1062;SDS011;520;50.932;6.962;2024-01-15T11:52:36;4.40;;;3.80;;
1062;SDS011;520;50.932;6.962;2024-01-15T11:55:19;4.93;;;3.43;;
1062;SDS011;520;50.932;6.962;2024-01-15T11:57:53;4.53;;;4.13;;
1062;SDS011;520;50.932;6.962;2024-01-15T12:00:23;3.60;;;3.30;;
1062;SDS011;520;50.932;6.962;2024-01-15T12:02:54;3.83;;;3.50;;
1062;SDS011;520;50.932;6.962;2024-01-15T12:05:22;3.67;;;3.30;;
1062;SDS011;520;50.932;6.962;2024-01-15T12:07:49;5.17;;;3.20;;
1062;SDS011;520;50.932;6.962;2024-01-15T12:10:20;7.37;;;4.13;;
1062;SDS011;520;50.932;6.962;2024-01-15T12:15:41;5.23;;;3.63;;
1062;SDS011;520;50.932;6.962;2024-01-15T12:18:14;3.67;;;3.40;;
1062;SDS011;520;50.932;6.962;2024-01-15T12:20:41;5.50;;;4.10;;
1062;SDS011;520;50.932;6.962;2024-01-15T12:23:15;7.07;;;4.27;;
1062;SDS011;520;50.932;6.962;2024-01-15T12:25:44;6.70;;;4.10;;
1062;SDS011;520;50.932;6.962;2024-01-15T12:28:13;4.73;;;4.30;;
1062;SDS011;520;50.932;6.962;2024-01-15T12:30:49;4.70;;;4.30;;
1062;SDS011;520;50.932;6.962;2024-01-15T12:33:19;6.17;;;4.20;;
1062;SDS011;520;50.932;6.962;2024-01-15T12:35:47;7.87;;;4.23;;
1062;SDS011;520;50.932;6.962;2024-01-15T12:38:17;6.10;;;4.00;;
1062;SDS011;520;50.932;6.962;2024-01-15T12:40:45;5.23;;;3.67;;
1062;SDS011;520;50.932;6.962;2024-01-15T12:43:13;6.17;;;3.87;;
1062;SDS011;520;50.932;6.962;2024-01-15T12:45:40;5.40;;;4.17;;
1062;SDS011;520;50.932;6.962;2024-01-15T12:48:12;7.30;;;3.80;;
1062;SDS011;520;50.932;6.962;2024-01-15T12:50:44;3.93;;;3.53;;
1062;SDS011;520;50.932;6.962;2024-01-15T12:53:13;6.40;;;3.60;;
1062;SDS011;520;50.932;6.962;2024-01-15T12:55:41;5.67;;;3.87;;
1062;SDS011;520;50.932;6.962;2024-01-15T12:58:11;8.03;;;3.77;;
1062;SDS011;520;50.932;6.962;2024-01-15T13:00:39;10.50;;;4.47;;
1062;SDS011;520;50.932;6.962;2024-01-15T13:03:11;5.03;;;3.97;;
1062;SDS011;520;50.932;6.962;2024-01-15T13:05:40;9.17;;;3.70;;
1062;SDS011;520;50.932;6.962;2024-01-15T13:08:09;9.53;;;3.70;;
1062;SDS011;520;50.932;6.962;2024-01-15T13:10:36;3.30;;;2.63;;
1062;SDS011;520;50.932;6.962;2024-01-15T13:13:08;3.53;;;2.80;;
1062;SDS011;520;50.932;6.962;2024-01-15T13:15:36;4.30;;;3.10;;
1062;SDS011;520;50.932;6.962;2024-01-15T13:18:03;4.20;;;2.77;;
1062;SDS011;520;50.932;6.962;2024-01-15T13:20:30;4.23;;;3.27;;
1062;SDS011;520;50.932;6.962;2024-01-15T13:22:58;5.40;;;3.10;;
1062;SDS011;520;50.932;6.962;2024-01-15T13:25:25;4.33;;;3.10;;
1062;SDS011;520;50.932;6.962;2024-01-15T13:28:26;4.17;;;3.43;;
1062;SDS011;520;50.932;6.962;2024-01-15T13:30:59;4.33;;;2.80;;
1062;SDS011;520;50.932;6.962;2024-01-15T13:33:38;3.03;;;2.17;;
1062;SDS011;520;50.932;6.962;2024-01-15T13:36:10;3.07;;;2.40;;
1062;SDS011;520;50.932;6.962;2024-01-15T13:38:40;5.00;;;3.17;;
1062;SDS011;520;50.932;6.962;2024-01-15T13:41:15;4.90;;;2.20;;
1062;SDS011;520;50.932;6.962;2024-01-15T13:43:45;2.40;;;2.00;;
1062;SDS011;520;50.932;6.962;2024-01-15T13:46:14;2.87;;;1.90;;
1062;SDS011;520;50.932;6.962;2024-01-15T13:48:44;2.30;;;2.10;;
1062;SDS011;520;50.932;6.962;2024-01-15T13:51:15;3.43;;;1.50;;
1062;SDS011;520;50.932;6.962;2024-01-15T13:53:43;2.93;;;1.90;;
1062;SDS011;520;50.932;6.962;2024-01-15T13:56:11;2.37;;;1.50;;
1062;SDS011;520;50.932;6.962;2024-01-15T13:58:41;2.83;;;1.77;;
1062;SDS011;520;50.932;6.962;2024-01-15T14:01:11;3.60;;;1.60;;
1062;SDS011;520;50.932;6.962;2024-01-15T14:03:43;1.50;;;1.33;;
1062;SDS011;520;50.932;6.962;2024-01-15T14:06:15;1.53;;;1.43;;
1062;SDS011;520;50.932;6.962;2024-01-15T14:08:43;2.17;;;1.70;;
1062;SDS011;520;50.932;6.962;2024-01-15T14:11:16;0.93;;;0.93;;
1062;SDS011;520;50.932;6.962;2024-01-15T14:13:44;1.53;;;1.10;;
1062;SDS011;520;50.932;6.962;2024-01-15T14:16:26;2.30;;;1.30;;
1062;SDS011;520;50.932;6.962;2024-01-15T14:19:07;2.27;;;1.37;;
1062;SDS011;520;50.932;6.962;2024-01-15T14:21:43;3.73;;;1.33;;
1062;SDS011;520;50.932;6.962;2024-01-15T14:24:11;1.50;;;1.40;;
1062;SDS011;520;50.932;6.962;2024-01-15T14:26:52;2.03;;;1.57;;
1062;SDS011;520;50.932;6.962;2024-01-15T14:29:19;2.07;;;1.17;;
1062;SDS011;520;50.932;6.962;2024-01-15T14:31:50;1.20;;;1.10;;
1062;SDS011;520;50.932;6.962;2024-01-15T14:34:19;1.90;;;1.47;;
1062;SDS011;520;50.932;6.962;2024-01-15T14:36:50;2.00;;;1.63;;
1062;SDS011;520;50.932;6.962;2024-01-15T14:39:35;1.47;;;1.30;;
1062;SDS011;520;50.932;6.962;2024-01-15T14:42:22;0.90;;;0.90;;
1062;SDS011;520;50.932;6.962;2024-01-15T14:44:55;2.20;;;1.77;;
1062;SDS011;520;50.932;6.962;2024-01-15T14:47:44;2.40;;;1.80;;
1062;SDS011;520;50.932;6.962;2024-01-15T14:50:13;1.43;;;1.33;;
1062;SDS011;520;50.932;6.962;2024-01-15T14:52:55;1.40;;;1.30;;
1062;SDS011;520;50.932;6.962;2024-01-15T14:55:24;1.33;;;1.23;;
1062;SDS011;520;50.932;6.962;2024-01-15T14:57:58;1.30;;;1.20;;
1062;SDS011;520;50.932;6.962;2024-01-15T15:00:31;1.47;;;1.00;;
1062;SDS011;520;50.932;6.962;2024-01-15T15:03:03;1.30;;;1.20;;
1062;SDS011;520;50.932;6.962;2024-01-15T15:05:32;1.93;;;1.10;;
1062;SDS011;520;50.932;6.962;2024-01-15T15:08:02;2.10;;;1.90;;
1062;SDS011;520;50.932;6.962;2024-01-15T15:10:40;2.40;;;1.30;;
1062;SDS011;520;50.932;6.962;2024-01-15T15:13:21;1.67;;;1.17;;
1062;SDS011;520;50.932;6.962;2024-01-15T15:15:59;2.70;;;1.57;;
1062;SDS011;520;50.932;6.962;2024-01-15T15:18:40;1.10;;;1.10;;
1062;SDS011;520;50.932;6.962;2024-01-15T15:21:27;1.87;;;1.47;;
1062;SDS011;520;50.932;6.962;2024-01-15T15:23:58;2.93;;;1.40;;
1062;SDS011;520;50.932;6.962;2024-01-15T15:26:30;2.30;;;1.20;;
1062;SDS011;520;50.932;6.962;2024-01-15T15:29:01;4.57;;;1.43;;
1062;SDS011;520;50.932;6.962;2024-01-15T15:31:45;2.10;;;1.77;;
1062;SDS011;520;50.932;6.962;2024-01-15T15:34:12;2.10;;;1.33;;
1062;SDS011;520;50.932;6.962;2024-01-15T15:36:43;1.40;;;1.30;;
1062;SDS011;520;50.932;6.962;2024-01-15T15:39:13;1.77;;;1.67;;
1062;SDS011;520;50.932;6.962;2024-01-15T15:41:45;1.87;;;1.50;;
1062;SDS011;520;50.932;6.962;2024-01-15T15:44:16;1.00;;;1.00;;
1062;SDS011;520;50.932;6.962;2024-01-15T15:46:48;1.70;;;1.60;;
1062;SDS011;520;50.932;6.962;2024-01-15T15:49:21;1.73;;;1.60;;
1062;SDS011;520;50.932;6.962;2024-01-15T15:51:55;3.13;;;2.03;;
1062;SDS011;520;50.932;6.962;2024-01-15T15:57:26;1.90;;;1.10;;
1062;SDS011;520;50.932;6.962;2024-01-15T15:59:54;1.83;;;1.73;;
1062;SDS011;520;50.932;6.962;2024-01-15T16:02:24;1.93;;;1.73;;
1062;SDS011;520;50.932;6.962;2024-01-15T16:04:56;1.40;;;1.30;;
1062;SDS011;520;50.932;6.962;2024-01-15T16:09:59;1.60;;;1.50;;